RYR45HE LEVC-GMTT
Flight info
| Callsign | RYR45HE |
|---|---|
| Flight time | 1h 2m |
| Altitude | 35000 |
| Route | ASTRO M985 PIMOS N869 GALTO M143 LAMAD |
| Aircraft | B38M/M-SDE1FGHILORVWXY/HB1 |
Departure
| Time | 2026-04-15 10:12 |
|---|---|
| Airport | Valencia Airport (LEVC) |
Arrival
| Time | 2026-04-15 11:15 |
|---|---|
| Airport | Tangier Ibn Battuta Airport (GMTT) |
| Time | Latitude | Longitude | Altitude | Speed | Heading |
|---|---|---|---|---|---|
| 2026-04-15 09:39 | 39.49290 | -0.47873 | 202 ft | 0 kts | 205° |
| 2026-04-15 10:00 | 39.49304 | -0.47865 | 207 ft | 4 kts | 205° |
| 2026-04-15 10:00 | 39.49322 | -0.47854 | 214 ft | 4 kts | 255° |
| 2026-04-15 10:00 | 39.49317 | -0.47833 | 207 ft | 2 kts | 296° |
| 2026-04-15 10:00 | 39.49307 | -0.47807 | 211 ft | 3 kts | 296° |
| 2026-04-15 10:01 | 39.49305 | -0.47804 | 210 ft | 2 kts | 296° |
| 2026-04-15 10:06 | 39.49306 | -0.47805 | 200 ft | 1 kts | 296° |
| 2026-04-15 10:06 | 39.49311 | -0.47819 | 210 ft | 3 kts | 295° |
| 2026-04-15 10:06 | 39.49324 | -0.47856 | 208 ft | 6 kts | 294° |
| 2026-04-15 10:07 | 39.49345 | -0.47911 | 212 ft | 8 kts | 297° |
| 2026-04-15 10:07 | 39.49334 | -0.47972 | 211 ft | 8 kts | 222° |
| 2026-04-15 10:07 | 39.49281 | -0.48006 | 233 ft | 10 kts | 204° |
| 2026-04-15 10:07 | 39.49209 | -0.48051 | 207 ft | 12 kts | 207° |
| 2026-04-15 10:08 | 39.49164 | -0.48033 | 210 ft | 7 kts | 121° |
| 2026-04-15 10:08 | 39.49138 | -0.47958 | 207 ft | 12 kts | 114° |
| 2026-04-15 10:08 | 39.49097 | -0.47850 | 211 ft | 15 kts | 116° |
| 2026-04-15 10:08 | 39.49068 | -0.47705 | 202 ft | 19 kts | 97° |
| 2026-04-15 10:09 | 39.49018 | -0.47524 | 209 ft | 23 kts | 116° |
| 2026-04-15 10:09 | 39.48943 | -0.47329 | 199 ft | 25 kts | 117° |
| 2026-04-15 10:09 | 39.48815 | -0.47200 | 204 ft | 24 kts | 154° |
| 2026-04-15 10:09 | 39.48711 | -0.47053 | 186 ft | 23 kts | 116° |
| 2026-04-15 10:10 | 39.48640 | -0.46873 | 181 ft | 22 kts | 117° |
| 2026-04-15 10:10 | 39.48538 | -0.46739 | 178 ft | 21 kts | 173° |
| 2026-04-15 10:10 | 39.48448 | -0.46860 | 182 ft | 21 kts | 268° |
| 2026-04-15 10:10 | 39.48470 | -0.46955 | 183 ft | 3 kts | 295° |
| 2026-04-15 10:11 | 39.48478 | -0.46977 | 186 ft | 3 kts | 295° |
| 2026-04-15 10:11 | 39.48486 | -0.46998 | 196 ft | 3 kts | 295° |
| 2026-04-15 10:11 | 39.48486 | -0.47000 | 195 ft | 0 kts | 296° |
| 2026-04-15 10:11 | 39.48487 | -0.47002 | 194 ft | 2 kts | 296° |
| 2026-04-15 10:12 | 39.48557 | -0.47184 | 187 ft | 57 kts | 296° |
| 2026-04-15 10:12 | 39.48844 | -0.47932 | 211 ft | 127 kts | 296° |
| 2026-04-15 10:12 | 39.49322 | -0.49171 | 375 ft | 170 kts | 295° |
| 2026-04-15 10:12 | 39.49858 | -0.50548 | 1166 ft | 174 kts | 295° |
| 2026-04-15 10:13 | 39.50372 | -0.51905 | 2186 ft | 168 kts | 296° |
| 2026-04-15 10:13 | 39.50930 | -0.53332 | 2803 ft | 193 kts | 297° |
| 2026-04-15 10:13 | 39.51579 | -0.55012 | 3162 ft | 222 kts | 297° |
| 2026-04-15 10:13 | 39.52312 | -0.56841 | 3770 ft | 231 kts | 299° |
| 2026-04-15 10:14 | 39.52962 | -0.58773 | 4402 ft | 245 kts | 283° |
| 2026-04-15 10:14 | 39.52780 | -0.61071 | 4907 ft | 270 kts | 247° |
| 2026-04-15 10:14 | 39.51576 | -0.62947 | 5873 ft | 278 kts | 214° |
| 2026-04-15 10:14 | 39.49743 | -0.63844 | 6748 ft | 288 kts | 188° |
| 2026-04-15 10:15 | 39.47732 | -0.63742 | 7613 ft | 293 kts | 168° |
| 2026-04-15 10:15 | 39.45749 | -0.63037 | 8462 ft | 299 kts | 162° |
| 2026-04-15 10:15 | 39.43725 | -0.62300 | 9274 ft | 307 kts | 174° |
| 2026-04-15 10:15 | 39.41642 | -0.62699 | 10187 ft | 305 kts | 207° |
| 2026-04-15 10:16 | 39.39969 | -0.64361 | 10776 ft | 311 kts | 234° |
| 2026-04-15 10:16 | 39.38585 | -0.66659 | 10999 ft | 337 kts | 235° |
| 2026-04-15 10:16 | 39.37099 | -0.69107 | 11461 ft | 352 kts | 234° |
| 2026-04-15 10:16 | 39.35552 | -0.71606 | 12179 ft | 359 kts | 234° |
| 2026-04-15 10:17 | 39.33972 | -0.74117 | 12844 ft | 361 kts | 233° |
| 2026-04-15 10:17 | 39.32370 | -0.76643 | 13163 ft | 365 kts | 233° |
| 2026-04-15 10:17 | 39.30759 | -0.79172 | 13197 ft | 363 kts | 233° |
| 2026-04-15 10:17 | 39.29150 | -0.81693 | 13273 ft | 365 kts | 233° |
| 2026-04-15 10:18 | 39.27516 | -0.84249 | 13778 ft | 372 kts | 233° |
| 2026-04-15 10:18 | 39.25874 | -0.86836 | 14589 ft | 373 kts | 234° |
| 2026-04-15 10:18 | 39.24277 | -0.89480 | 15369 ft | 374 kts | 236° |
| 2026-04-15 10:18 | 39.22718 | -0.92129 | 16074 ft | 378 kts | 236° |
| 2026-04-15 10:19 | 39.21124 | -0.94852 | 16757 ft | 383 kts | 236° |
| 2026-04-15 10:19 | 39.19507 | -0.97605 | 17456 ft | 387 kts | 236° |
| 2026-04-15 10:19 | 39.17845 | -1.00419 | 18148 ft | 391 kts | 236° |
| 2026-04-15 10:19 | 39.16207 | -1.03183 | 18764 ft | 395 kts | 236° |
| 2026-04-15 10:20 | 39.14525 | -1.06012 | 19322 ft | 400 kts | 236° |
| 2026-04-15 10:20 | 39.12825 | -1.08864 | 19882 ft | 404 kts | 236° |
| 2026-04-15 10:20 | 39.11101 | -1.11754 | 20439 ft | 409 kts | 236° |
| 2026-04-15 10:20 | 39.09359 | -1.14671 | 20981 ft | 413 kts | 237° |
| 2026-04-15 10:21 | 39.07601 | -1.17612 | 21550 ft | 417 kts | 237° |
| 2026-04-15 10:21 | 39.05826 | -1.20580 | 22063 ft | 421 kts | 237° |
| 2026-04-15 10:21 | 39.04027 | -1.23586 | 22579 ft | 425 kts | 237° |
| 2026-04-15 10:21 | 39.02215 | -1.26610 | 23112 ft | 429 kts | 237° |
| 2026-04-15 10:22 | 39.00387 | -1.29661 | 23610 ft | 433 kts | 237° |
| 2026-04-15 10:22 | 38.98538 | -1.32747 | 24043 ft | 437 kts | 237° |
| 2026-04-15 10:22 | 38.96678 | -1.35849 | 24525 ft | 438 kts | 237° |
| 2026-04-15 10:22 | 38.94813 | -1.38954 | 25024 ft | 439 kts | 237° |
| 2026-04-15 10:23 | 38.92943 | -1.42066 | 25496 ft | 441 kts | 237° |
| 2026-04-15 10:23 | 38.91062 | -1.45197 | 25908 ft | 444 kts | 237° |
| 2026-04-15 10:23 | 38.89170 | -1.48341 | 26341 ft | 447 kts | 237° |
| 2026-04-15 10:23 | 38.87267 | -1.51500 | 26784 ft | 448 kts | 237° |
| 2026-04-15 10:24 | 38.85356 | -1.54669 | 27224 ft | 450 kts | 237° |
| 2026-04-15 10:24 | 38.83436 | -1.57849 | 27617 ft | 452 kts | 237° |
| 2026-04-15 10:24 | 38.81503 | -1.61049 | 28012 ft | 455 kts | 237° |
| 2026-04-15 10:24 | 38.79560 | -1.64262 | 28424 ft | 456 kts | 237° |
| 2026-04-15 10:25 | 38.77613 | -1.67479 | 28835 ft | 458 kts | 237° |
| 2026-04-15 10:25 | 38.75657 | -1.70708 | 29196 ft | 461 kts | 237° |
| 2026-04-15 10:25 | 38.73686 | -1.73958 | 29564 ft | 463 kts | 237° |
| 2026-04-15 10:25 | 38.71706 | -1.77219 | 29983 ft | 463 kts | 237° |
| 2026-04-15 10:26 | 38.69731 | -1.80462 | 30523 ft | 460 kts | 237° |
| 2026-04-15 10:26 | 38.67767 | -1.83681 | 30977 ft | 458 kts | 237° |
| 2026-04-15 10:26 | 38.65809 | -1.86889 | 31362 ft | 458 kts | 238° |
| 2026-04-15 10:26 | 38.63851 | -1.90098 | 31721 ft | 458 kts | 238° |
| 2026-04-15 10:27 | 38.61891 | -1.93308 | 32111 ft | 457 kts | 238° |
| 2026-04-15 10:27 | 38.59935 | -1.96508 | 32470 ft | 457 kts | 238° |
| 2026-04-15 10:27 | 38.57977 | -1.99709 | 32827 ft | 457 kts | 238° |
| 2026-04-15 10:27 | 38.56023 | -2.02900 | 33231 ft | 455 kts | 238° |
| 2026-04-15 10:28 | 38.54074 | -2.06080 | 33571 ft | 455 kts | 238° |
| 2026-04-15 10:28 | 38.52120 | -2.09265 | 33906 ft | 455 kts | 238° |
| 2026-04-15 10:28 | 38.50169 | -2.12442 | 34276 ft | 454 kts | 238° |
| 2026-04-15 10:28 | 38.48223 | -2.15608 | 34611 ft | 452 kts | 238° |
| 2026-04-15 10:29 | 38.46283 | -2.18765 | 34947 ft | 451 kts | 238° |
| 2026-04-15 10:29 | 38.44344 | -2.21920 | 35199 ft | 452 kts | 238° |
| 2026-04-15 10:29 | 38.42401 | -2.25080 | 35223 ft | 455 kts | 238° |
| 2026-04-15 10:30 | 38.38502 | -2.31407 | 35228 ft | 451 kts | 238° |
| 2026-04-15 10:30 | 38.34521 | -2.37582 | 35240 ft | 453 kts | 233° |
| 2026-04-15 10:31 | 38.30173 | -2.43420 | 35240 ft | 454 kts | 232° |
| 2026-04-15 10:31 | 38.25778 | -2.49200 | 35245 ft | 455 kts | 232° |
| 2026-04-15 10:32 | 38.21432 | -2.54978 | 35244 ft | 454 kts | 232° |
| 2026-04-15 10:32 | 38.17081 | -2.60791 | 35253 ft | 454 kts | 232° |
| 2026-04-15 10:33 | 38.12739 | -2.66589 | 35254 ft | 453 kts | 232° |
| 2026-04-15 10:33 | 38.08378 | -2.72401 | 35246 ft | 455 kts | 232° |
| 2026-04-15 10:34 | 38.04003 | -2.78220 | 35262 ft | 456 kts | 232° |
| 2026-04-15 10:34 | 37.99623 | -2.84035 | 35190 ft | 457 kts | 232° |
| 2026-04-15 10:35 | 37.95238 | -2.89844 | 35244 ft | 457 kts | 232° |
| 2026-04-15 10:35 | 37.90824 | -2.95659 | 35250 ft | 458 kts | 232° |
| 2026-04-15 10:36 | 37.86392 | -3.01478 | 35248 ft | 460 kts | 232° |
| 2026-04-15 10:36 | 37.81953 | -3.07302 | 35246 ft | 460 kts | 232° |
| 2026-04-15 10:37 | 37.77509 | -3.13125 | 35239 ft | 460 kts | 232° |
| 2026-04-15 10:37 | 37.73061 | -3.18940 | 35236 ft | 460 kts | 232° |
| 2026-04-15 10:38 | 37.68629 | -3.24745 | 35246 ft | 459 kts | 232° |
| 2026-04-15 10:38 | 37.64200 | -3.30547 | 35236 ft | 458 kts | 232° |
| 2026-04-15 10:39 | 37.60523 | -3.35355 | 35240 ft | 458 kts | 232° |
| 2026-04-15 10:39 | 37.56100 | -3.41130 | 35229 ft | 457 kts | 232° |
| 2026-04-15 10:40 | 37.51686 | -3.46882 | 35243 ft | 456 kts | 232° |
| 2026-04-15 10:40 | 37.47291 | -3.52595 | 35220 ft | 447 kts | 232° |
| 2026-04-15 10:41 | 37.43003 | -3.58162 | 35238 ft | 440 kts | 232° |
| 2026-04-15 10:41 | 37.38728 | -3.63710 | 34924 ft | 442 kts | 232° |
| 2026-04-15 10:41 | 37.36607 | -3.66447 | 34713 ft | 435 kts | 232° |
| 2026-04-15 10:42 | 37.34499 | -3.69164 | 34329 ft | 432 kts | 232° |
| 2026-04-15 10:42 | 37.32407 | -3.71859 | 33936 ft | 429 kts | 232° |
| 2026-04-15 10:42 | 37.30331 | -3.74533 | 33535 ft | 426 kts | 232° |
| 2026-04-15 10:42 | 37.28268 | -3.77190 | 33151 ft | 423 kts | 232° |
| 2026-04-15 10:43 | 37.26221 | -3.79824 | 32778 ft | 420 kts | 232° |
| 2026-04-15 10:43 | 37.24192 | -3.82434 | 32412 ft | 417 kts | 232° |
| 2026-04-15 10:43 | 37.22174 | -3.85028 | 32041 ft | 414 kts | 232° |
| 2026-04-15 10:43 | 37.20169 | -3.87603 | 31681 ft | 411 kts | 231° |
| 2026-04-15 10:44 | 37.18175 | -3.90162 | 31332 ft | 409 kts | 231° |
| 2026-04-15 10:44 | 37.16193 | -3.92704 | 30969 ft | 407 kts | 231° |
| 2026-04-15 10:44 | 37.14219 | -3.95233 | 30606 ft | 405 kts | 231° |
| 2026-04-15 10:44 | 37.12255 | -3.97749 | 30240 ft | 403 kts | 231° |
| 2026-04-15 10:45 | 37.10299 | -4.00251 | 29809 ft | 401 kts | 231° |
| 2026-04-15 10:45 | 37.08359 | -4.02730 | 29422 ft | 398 kts | 231° |
| 2026-04-15 10:45 | 37.06425 | -4.05200 | 29035 ft | 395 kts | 231° |
| 2026-04-15 10:45 | 37.04506 | -4.07648 | 28644 ft | 392 kts | 231° |
| 2026-04-15 10:46 | 37.02604 | -4.10073 | 28303 ft | 389 kts | 231° |
| 2026-04-15 10:46 | 37.00713 | -4.12482 | 27908 ft | 386 kts | 231° |
| 2026-04-15 10:46 | 36.98844 | -4.14862 | 27545 ft | 383 kts | 231° |
| 2026-04-15 10:46 | 36.96982 | -4.17232 | 27196 ft | 380 kts | 231° |
| 2026-04-15 10:47 | 36.95135 | -4.19581 | 26848 ft | 378 kts | 231° |
| 2026-04-15 10:47 | 36.93296 | -4.21919 | 26486 ft | 376 kts | 231° |
| 2026-04-15 10:47 | 36.91470 | -4.24238 | 26140 ft | 374 kts | 231° |
| 2026-04-15 10:47 | 36.89673 | -4.26519 | 25796 ft | 372 kts | 231° |
| 2026-04-15 10:48 | 36.87858 | -4.28821 | 25446 ft | 371 kts | 231° |
| 2026-04-15 10:48 | 36.86054 | -4.31108 | 25097 ft | 369 kts | 231° |
| 2026-04-15 10:48 | 36.84254 | -4.33387 | 24756 ft | 368 kts | 230° |
| 2026-04-15 10:48 | 36.82450 | -4.35667 | 24386 ft | 368 kts | 230° |
| 2026-04-15 10:49 | 36.80518 | -4.37776 | 24077 ft | 371 kts | 219° |
| 2026-04-15 10:49 | 36.78375 | -4.39542 | 23819 ft | 369 kts | 217° |
| 2026-04-15 10:49 | 36.76209 | -4.41242 | 23430 ft | 367 kts | 216° |
| 2026-04-15 10:49 | 36.74044 | -4.42924 | 23066 ft | 365 kts | 216° |
| 2026-04-15 10:50 | 36.71893 | -4.44597 | 22715 ft | 363 kts | 216° |
| 2026-04-15 10:50 | 36.69761 | -4.46265 | 22372 ft | 361 kts | 216° |
| 2026-04-15 10:50 | 36.67644 | -4.47928 | 22030 ft | 359 kts | 216° |
| 2026-04-15 10:50 | 36.65538 | -4.49588 | 21686 ft | 357 kts | 216° |
| 2026-04-15 10:51 | 36.63440 | -4.51245 | 21350 ft | 356 kts | 216° |
| 2026-04-15 10:51 | 36.61354 | -4.52893 | 21003 ft | 355 kts | 216° |
| 2026-04-15 10:51 | 36.59274 | -4.54537 | 20676 ft | 353 kts | 216° |
| 2026-04-15 10:51 | 36.57203 | -4.56174 | 20334 ft | 352 kts | 216° |
| 2026-04-15 10:52 | 36.55139 | -4.57803 | 20001 ft | 351 kts | 216° |
| 2026-04-15 10:52 | 36.53083 | -4.59427 | 19660 ft | 350 kts | 216° |
| 2026-04-15 10:52 | 36.51026 | -4.61049 | 19318 ft | 349 kts | 216° |
| 2026-04-15 10:52 | 36.48975 | -4.62666 | 18976 ft | 349 kts | 216° |
| 2026-04-15 10:53 | 36.46924 | -4.64281 | 18642 ft | 348 kts | 216° |
| 2026-04-15 10:53 | 36.44877 | -4.65893 | 18256 ft | 348 kts | 216° |
| 2026-04-15 10:53 | 36.42837 | -4.67497 | 17895 ft | 347 kts | 216° |
| 2026-04-15 10:53 | 36.40801 | -4.69097 | 17550 ft | 345 kts | 216° |
| 2026-04-15 10:54 | 36.38779 | -4.70685 | 17210 ft | 343 kts | 216° |
| 2026-04-15 10:54 | 36.36768 | -4.72265 | 16880 ft | 341 kts | 216° |
| 2026-04-15 10:54 | 36.34769 | -4.73833 | 16546 ft | 339 kts | 216° |
| 2026-04-15 10:54 | 36.32777 | -4.75395 | 16214 ft | 338 kts | 216° |
| 2026-04-15 10:55 | 36.30794 | -4.76949 | 15896 ft | 336 kts | 216° |
| 2026-04-15 10:55 | 36.28820 | -4.78497 | 15568 ft | 335 kts | 216° |
| 2026-04-15 10:55 | 36.26854 | -4.80035 | 15242 ft | 334 kts | 215° |
| 2026-04-15 10:55 | 36.24894 | -4.81569 | 14916 ft | 333 kts | 215° |
| 2026-04-15 10:56 | 36.22939 | -4.83099 | 14592 ft | 332 kts | 215° |
| 2026-04-15 10:56 | 36.20987 | -4.84625 | 14258 ft | 331 kts | 215° |
| 2026-04-15 10:56 | 36.19042 | -4.86145 | 13917 ft | 331 kts | 215° |
| 2026-04-15 10:56 | 36.17098 | -4.87661 | 13565 ft | 329 kts | 215° |
| 2026-04-15 10:57 | 36.15162 | -4.89170 | 13226 ft | 328 kts | 215° |
| 2026-04-15 10:57 | 36.11344 | -4.92190 | 12571 ft | 324 kts | 215° |
| 2026-04-15 10:57 | 36.09454 | -4.93694 | 12240 ft | 322 kts | 215° |
| 2026-04-15 10:58 | 36.07573 | -4.95191 | 11924 ft | 320 kts | 215° |
| 2026-04-15 10:58 | 36.05705 | -4.96675 | 11604 ft | 319 kts | 215° |
| 2026-04-15 10:58 | 36.03844 | -4.98153 | 11290 ft | 317 kts | 215° |
| 2026-04-15 10:58 | 36.01992 | -4.99622 | 10970 ft | 315 kts | 214° |
| 2026-04-15 10:59 | 36.00149 | -5.01082 | 10666 ft | 314 kts | 214° |
| 2026-04-15 10:59 | 35.98318 | -5.02533 | 10374 ft | 311 kts | 214° |
| 2026-04-15 10:59 | 35.96527 | -5.03949 | 10229 ft | 300 kts | 214° |
| 2026-04-15 10:59 | 35.94817 | -5.05302 | 9964 ft | 293 kts | 214° |
| 2026-04-15 11:00 | 35.93085 | -5.06672 | 9583 ft | 291 kts | 214° |
| 2026-04-15 11:00 | 35.91384 | -5.08018 | 9190 ft | 290 kts | 214° |
| 2026-04-15 11:00 | 35.89716 | -5.09337 | 8816 ft | 288 kts | 214° |
| 2026-04-15 11:00 | 35.88041 | -5.10659 | 8522 ft | 283 kts | 214° |
| 2026-04-15 11:01 | 35.86403 | -5.11950 | 8292 ft | 276 kts | 214° |
| 2026-04-15 11:01 | 35.84806 | -5.13209 | 8074 ft | 269 kts | 216° |
| 2026-04-15 11:01 | 35.83527 | -5.14794 | 7853 ft | 257 kts | 243° |
| 2026-04-15 11:01 | 35.82923 | -5.16798 | 7681 ft | 249 kts | 262° |
| 2026-04-15 11:02 | 35.82621 | -5.18912 | 7455 ft | 252 kts | 264° |
| 2026-04-15 11:02 | 35.82341 | -5.21094 | 7208 ft | 264 kts | 264° |
| 2026-04-15 11:02 | 35.82051 | -5.23349 | 6942 ft | 269 kts | 264° |
| 2026-04-15 11:02 | 35.81755 | -5.25610 | 6647 ft | 265 kts | 263° |
| 2026-04-15 11:03 | 35.81456 | -5.27846 | 6366 ft | 263 kts | 263° |
| 2026-04-15 11:03 | 35.81157 | -5.30066 | 6070 ft | 262 kts | 263° |
| 2026-04-15 11:03 | 35.80857 | -5.32279 | 5792 ft | 261 kts | 263° |
| 2026-04-15 11:03 | 35.80557 | -5.34481 | 5512 ft | 260 kts | 263° |
| 2026-04-15 11:04 | 35.80259 | -5.36654 | 5380 ft | 255 kts | 263° |
| 2026-04-15 11:04 | 35.79964 | -5.38798 | 5273 ft | 252 kts | 264° |
| 2026-04-15 11:04 | 35.79674 | -5.40916 | 5118 ft | 248 kts | 263° |
| 2026-04-15 11:04 | 35.79390 | -5.42977 | 5033 ft | 242 kts | 264° |
| 2026-04-15 11:05 | 35.79112 | -5.45021 | 4785 ft | 244 kts | 264° |
| 2026-04-15 11:05 | 35.78821 | -5.47095 | 4461 ft | 245 kts | 264° |
| 2026-04-15 11:05 | 35.78548 | -5.49154 | 4179 ft | 241 kts | 265° |
| 2026-04-15 11:05 | 35.78323 | -5.51197 | 3897 ft | 242 kts | 265° |
| 2026-04-15 11:06 | 35.77752 | -5.53116 | 3665 ft | 239 kts | 238° |
| 2026-04-15 11:06 | 35.76555 | -5.54486 | 3428 ft | 237 kts | 209° |
| 2026-04-15 11:06 | 35.74999 | -5.55028 | 3374 ft | 227 kts | 188° |
| 2026-04-15 11:06 | 35.73462 | -5.55136 | 3230 ft | 217 kts | 177° |
| 2026-04-15 11:07 | 35.72119 | -5.55186 | 3075 ft | 211 kts | 197° |
| 2026-04-15 11:07 | 35.70894 | -5.55961 | 3131 ft | 189 kts | 224° |
| 2026-04-15 11:07 | 35.69931 | -5.56952 | 3104 ft | 185 kts | 223° |
| 2026-04-15 11:07 | 35.69234 | -5.58149 | 3136 ft | 168 kts | 264° |
| 2026-04-15 11:08 | 35.69455 | -5.59482 | 3177 ft | 165 kts | 301° |
| 2026-04-15 11:08 | 35.69871 | -5.60720 | 3201 ft | 165 kts | 287° |
| 2026-04-15 11:08 | 35.70157 | -5.62121 | 3159 ft | 165 kts | 288° |
| 2026-04-15 11:08 | 35.70408 | -5.63460 | 3099 ft | 159 kts | 283° |
| 2026-04-15 11:09 | 35.70588 | -5.64784 | 3228 ft | 158 kts | 282° |
| 2026-04-15 11:09 | 35.70747 | -5.66170 | 3225 ft | 162 kts | 281° |
| 2026-04-15 11:09 | 35.70885 | -5.67546 | 3193 ft | 159 kts | 283° |
| 2026-04-15 11:09 | 35.71027 | -5.68888 | 3201 ft | 158 kts | 278° |
| 2026-04-15 11:10 | 35.71141 | -5.70271 | 3177 ft | 164 kts | 278° |
| 2026-04-15 11:10 | 35.71277 | -5.71635 | 3138 ft | 159 kts | 281° |
| 2026-04-15 11:10 | 35.71421 | -5.72990 | 2942 ft | 160 kts | 277° |
| 2026-04-15 11:10 | 35.71530 | -5.74290 | 2719 ft | 144 kts | 278° |
| 2026-04-15 11:11 | 35.71661 | -5.75528 | 2561 ft | 152 kts | 279° |
| 2026-04-15 11:11 | 35.71774 | -5.76808 | 2372 ft | 148 kts | 278° |
| 2026-04-15 11:11 | 35.71887 | -5.78031 | 2155 ft | 139 kts | 277° |
| 2026-04-15 11:11 | 35.71959 | -5.79210 | 1980 ft | 139 kts | 274° |
| 2026-04-15 11:12 | 35.72105 | -5.80386 | 1814 ft | 143 kts | 278° |
| 2026-04-15 11:12 | 35.72219 | -5.81599 | 1611 ft | 140 kts | 276° |
| 2026-04-15 11:12 | 35.72302 | -5.82807 | 1407 ft | 142 kts | 277° |
| 2026-04-15 11:12 | 35.72416 | -5.83976 | 1250 ft | 134 kts | 277° |
| 2026-04-15 11:13 | 35.72446 | -5.84294 | 1178 ft | 138 kts | 277° |
| 2026-04-15 11:13 | 35.72538 | -5.85271 | 1037 ft | 139 kts | 277° |
| 2026-04-15 11:13 | 35.72647 | -5.86483 | 832 ft | 145 kts | 276° |
| 2026-04-15 11:13 | 35.72759 | -5.87706 | 650 ft | 144 kts | 275° |
| 2026-04-15 11:14 | 35.72873 | -5.88918 | 460 ft | 142 kts | 276° |
| 2026-04-15 11:14 | 35.72978 | -5.90139 | 206 ft | 142 kts | 277° |
| 2026-04-15 11:14 | 35.73090 | -5.91314 | 64 ft | 132 kts | 277° |
| 2026-04-15 11:14 | 35.73172 | -5.92190 | 52 ft | 78 kts | 277° |
| 2026-04-15 11:15 | 35.73194 | -5.92544 | 47 ft | 28 kts | 251° |
| 2026-04-15 11:15 | 35.73114 | -5.92616 | 47 ft | 7 kts | 191° |
| 2026-04-15 11:15 | 35.73067 | -5.92602 | 45 ft | 7 kts | 148° |
| 2026-04-15 11:15 | 35.73033 | -5.92560 | 48 ft | 7 kts | 122° |
| 2026-04-15 11:16 | 35.73019 | -5.92497 | 48 ft | 9 kts | 95° |
| 2026-04-15 11:16 | 35.73013 | -5.92401 | 49 ft | 13 kts | 95° |
| 2026-04-15 11:16 | 35.72999 | -5.92275 | 51 ft | 17 kts | 98° |
| 2026-04-15 11:16 | 35.72984 | -5.92120 | 52 ft | 20 kts | 97° |
| 2026-04-15 11:17 | 35.72968 | -5.91948 | 55 ft | 20 kts | 96° |
| 2026-04-15 11:17 | 35.72950 | -5.91784 | 57 ft | 11 kts | 109° |
| 2026-04-15 11:17 | 35.72918 | -5.91730 | 56 ft | 7 kts | 140° |
| 2026-04-15 11:17 | 35.72872 | -5.91715 | 58 ft | 7 kts | 178° |
| 2026-04-15 11:18 | 35.72824 | -5.91714 | 58 ft | 7 kts | 181° |
| 2026-04-15 11:18 | 35.72817 | -5.91714 | 58 ft | 0 kts | 178° |
| 2026-04-15 11:21 | 35.72792 | -5.91713 | 58 ft | 8 kts | 176° |
| 2026-04-15 11:21 | 35.72707 | -5.91705 | 59 ft | 15 kts | 175° |
| 2026-04-15 11:21 | 35.72601 | -5.91695 | 59 ft | 11 kts | 175° |
| 2026-04-15 11:21 | 35.72540 | -5.91687 | 59 ft | 9 kts | 171° |
| 2026-04-15 11:22 | 35.72482 | -5.91667 | 56 ft | 9 kts | 154° |
| 2026-04-15 11:22 | 35.72438 | -5.91600 | 59 ft | 11 kts | 114° |
| 2026-04-15 11:22 | 35.72429 | -5.91498 | 60 ft | 8 kts | 83° |
| 2026-04-15 11:22 | 35.72432 | -5.91421 | 63 ft | 8 kts | 95° |
| 2026-04-15 11:23 | 35.72440 | -5.91364 | 57 ft | 7 kts | 49° |
| 2026-04-15 11:23 | 35.72465 | -5.91345 | 62 ft | 7 kts | 12° |
| 2026-04-15 11:23 | 35.72518 | -5.91346 | 63 ft | 8 kts | 356° |
| 2026-04-15 11:23 | 35.72526 | -5.91346 | 62 ft | 1 kts | 356° |
| 2026-04-15 11:24 | 35.72526 | -5.91347 | 62 ft | 0 kts | 356° |